createdAt,value
2023-05-14T00:01:03.030Z,5.38
2023-05-14T00:04:06.519Z,6.30
2023-05-14T00:07:10.819Z,5.55
2023-05-14T00:10:13.610Z,5.70
2023-05-14T00:13:16.363Z,4.50
2023-05-14T00:16:19.140Z,5.38
2023-05-14T00:19:21.913Z,4.93
2023-05-14T00:22:26.043Z,4.15
2023-05-14T00:25:29.235Z,4.20
2023-05-14T00:28:31.930Z,4.72
2023-05-14T00:31:34.660Z,7.65
2023-05-14T00:34:37.384Z,4.97
2023-05-14T00:37:41.510Z,6.68
2023-05-14T00:40:46.040Z,4.85
2023-05-14T00:43:48.900Z,5.30
2023-05-14T00:46:51.811Z,7.35
2023-05-14T00:49:54.548Z,7.53
2023-05-14T00:52:58.867Z,4.90
2023-05-14T00:56:01.845Z,5.05
2023-05-14T00:59:04.582Z,6.60
2023-05-14T01:02:07.494Z,5.00
2023-05-14T01:05:11.037Z,5.20
2023-05-14T01:08:22.725Z,5.05
2023-05-14T01:11:30.193Z,4.43
2023-05-14T01:14:53.538Z,4.72
2023-05-14T01:18:05.595Z,4.78
2023-05-14T01:21:21.186Z,5.70
2023-05-14T01:24:25.588Z,4.53
2023-05-14T01:27:48.741Z,5.32
2023-05-14T01:30:58.148Z,5.82
2023-05-14T01:34:02.993Z,4.78
2023-05-14T01:37:07.553Z,5.45
2023-05-14T01:40:12.389Z,7.75
2023-05-14T01:43:16.097Z,5.72
2023-05-14T01:46:19.293Z,5.53
2023-05-14T01:49:22.009Z,5.95
2023-05-14T01:52:24.728Z,4.95
2023-05-14T01:55:28.845Z,5.53
2023-05-14T01:58:31.610Z,5.68
2023-05-14T02:01:34.465Z,5.65
2023-05-14T02:04:37.189Z,4.63
2023-05-14T02:07:40.393Z,5.15
2023-05-14T02:10:44.527Z,7.82
2023-05-14T02:13:47.241Z,5.45
2023-05-14T02:16:50.986Z,5.05
2023-05-14T02:19:53.816Z,4.75
2023-05-14T02:22:56.600Z,4.78
2023-05-14T02:26:00.640Z,4.53
2023-05-14T02:29:03.427Z,4.50
2023-05-14T02:32:06.790Z,6.18
2023-05-14T02:35:10.404Z,4.00
2023-05-14T02:38:13.044Z,4.80
2023-05-14T02:41:17.120Z,5.90
2023-05-14T02:44:19.892Z,7.13
2023-05-14T02:47:22.765Z,4.67
2023-05-14T02:50:25.833Z,4.60
2023-05-14T02:53:28.741Z,5.30
2023-05-14T02:56:32.873Z,4.95
2023-05-14T02:59:35.979Z,5.60
2023-05-14T03:02:39.577Z,5.53
2023-05-14T03:05:42.641Z,4.95
2023-05-14T03:08:45.880Z,5.82
2023-05-14T03:11:51.540Z,5.63
2023-05-14T03:14:54.227Z,5.82
2023-05-14T03:17:57.041Z,5.45
2023-05-14T03:20:59.886Z,5.53
2023-05-14T03:24:02.641Z,5.28
2023-05-14T03:27:07.080Z,4.85
2023-05-14T03:30:11.749Z,6.70
2023-05-14T03:33:15.209Z,5.57
2023-05-14T03:36:17.915Z,5.85
2023-05-14T03:39:21.127Z,6.20
2023-05-14T03:42:25.331Z,5.43
2023-05-14T03:45:28.713Z,5.88
2023-05-14T03:48:31.504Z,6.13
2023-05-14T03:51:34.243Z,4.05
2023-05-14T03:54:38.126Z,4.80
2023-05-14T03:57:42.149Z,5.43
2023-05-14T04:00:44.961Z,5.32
2023-05-14T04:03:47.851Z,6.63
2023-05-14T04:06:50.767Z,5.15
2023-05-14T04:09:53.476Z,5.88
2023-05-14T04:12:57.678Z,6.35
2023-05-14T04:16:00.596Z,5.35
2023-05-14T04:19:04.869Z,6.00
2023-05-14T04:22:07.586Z,4.80
2023-05-14T04:25:10.659Z,6.18
2023-05-14T04:28:14.983Z,6.00
2023-05-14T04:31:17.694Z,6.32
2023-05-14T04:34:20.449Z,4.90
2023-05-14T04:37:23.284Z,5.45
2023-05-14T04:40:26.159Z,5.60
2023-05-14T04:43:30.442Z,4.97
2023-05-14T04:46:33.243Z,5.43
2023-05-14T04:49:36.003Z,4.50
2023-05-14T04:52:39.134Z,7.80
2023-05-14T04:55:42.073Z,5.20
2023-05-14T04:58:46.135Z,4.95
2023-05-14T05:01:48.923Z,6.45
2023-05-14T05:04:51.759Z,4.93
2023-05-14T05:07:54.704Z,4.77
2023-05-14T05:10:57.350Z,5.20
2023-05-14T05:14:01.613Z,5.32
2023-05-14T05:17:04.563Z,5.60
2023-05-14T05:20:09.973Z,4.80
2023-05-14T05:23:12.731Z,5.25
2023-05-14T05:26:15.744Z,5.13
2023-05-14T05:29:19.829Z,5.47
2023-05-14T05:32:22.510Z,5.22
2023-05-14T05:35:25.243Z,6.15
2023-05-14T05:38:27.944Z,5.68
2023-05-14T05:41:31.045Z,5.85
2023-05-14T05:44:35.092Z,6.10
2023-05-14T05:47:37.861Z,4.85
2023-05-14T05:50:40.592Z,5.55
2023-05-14T05:53:43.438Z,8.95
2023-05-14T05:56:46.224Z,6.35
2023-05-14T05:59:50.392Z,5.10
2023-05-14T06:02:53.313Z,6.95
2023-05-14T06:05:56.148Z,7.75
2023-05-14T06:08:58.839Z,5.65
2023-05-14T06:12:01.554Z,4.88
2023-05-14T06:15:06.664Z,6.35
2023-05-14T06:18:09.488Z,4.97
2023-05-14T06:21:12.151Z,4.93
2023-05-14T06:24:14.885Z,5.03
2023-05-14T06:27:17.678Z,5.43
2023-05-14T06:30:22.207Z,6.72
2023-05-14T06:33:30.937Z,5.20
2023-05-14T06:36:33.835Z,4.97
2023-05-14T06:39:36.561Z,5.38
2023-05-14T06:42:39.418Z,6.75
2023-05-14T06:45:43.473Z,5.57
2023-05-14T06:48:47.208Z,5.80
2023-05-14T06:51:50.018Z,7.57
2023-05-14T06:54:52.711Z,6.97
2023-05-14T06:57:55.405Z,4.57
2023-05-14T07:00:59.633Z,5.60
2023-05-14T07:04:02.835Z,5.15
2023-05-14T07:07:06.098Z,5.30
2023-05-14T07:10:09.581Z,6.15
2023-05-14T07:13:12.319Z,5.30
2023-05-14T07:16:16.441Z,6.30
2023-05-14T07:19:19.254Z,6.85
2023-05-14T07:22:22.066Z,7.63
2023-05-14T07:25:24.787Z,6.97
2023-05-14T07:28:27.563Z,7.53
2023-05-14T07:31:31.904Z,6.57
2023-05-14T07:34:34.674Z,6.22
2023-05-14T07:37:37.457Z,7.07
2023-05-14T07:40:40.145Z,7.70
2023-05-14T07:43:43.090Z,7.22
2023-05-14T07:46:47.376Z,8.63
2023-05-14T07:49:50.299Z,8.75
2023-05-14T07:52:53.064Z,6.72
2023-05-14T07:55:55.881Z,7.45
2023-05-14T07:58:58.738Z,7.88
2023-05-14T08:02:02.838Z,5.78
2023-05-14T08:05:06.175Z,5.95
2023-05-14T08:08:08.899Z,7.35
2023-05-14T08:11:11.775Z,6.45
2023-05-14T08:14:14.401Z,7.32
2023-05-14T08:17:18.568Z,5.93
2023-05-14T08:20:21.455Z,6.75
2023-05-14T08:23:24.262Z,6.22
2023-05-14T08:26:26.931Z,7.95
2023-05-14T08:29:29.851Z,6.60
2023-05-14T08:32:33.876Z,8.05
2023-05-14T08:35:36.542Z,6.80
2023-05-14T08:38:39.203Z,6.13
2023-05-14T08:41:42.263Z,6.95
2023-05-14T08:44:49.837Z,7.00
2023-05-14T08:47:54.192Z,7.93
2023-05-14T08:50:57.179Z,7.60
2023-05-14T08:54:00.372Z,8.07
2023-05-14T08:57:04.279Z,6.95
2023-05-14T09:00:11.577Z,8.10
2023-05-14T09:03:16.239Z,7.45
2023-05-14T09:06:19.855Z,8.55
2023-05-14T09:09:23.563Z,7.30
2023-05-14T09:12:26.493Z,7.40
2023-05-14T09:15:30.584Z,7.97
2023-05-14T09:18:37.166Z,7.50
2023-05-14T09:21:40.235Z,7.97
2023-05-14T09:24:44.083Z,8.30
2023-05-14T09:27:50.725Z,8.25
2023-05-14T09:30:53.434Z,8.73
2023-05-14T09:33:57.548Z,7.68
2023-05-14T09:37:01.821Z,6.45
2023-05-14T09:40:08.989Z,7.97
2023-05-14T09:43:11.735Z,7.57
2023-05-14T09:46:14.582Z,7.90
2023-05-14T09:49:19.092Z,8.10
2023-05-14T09:52:21.824Z,8.43
2023-05-14T09:55:24.733Z,7.72
2023-05-14T09:58:27.581Z,6.88
2023-05-14T10:01:33.013Z,6.85
2023-05-14T10:04:38.580Z,6.25
2023-05-14T10:07:47.707Z,6.95
2023-05-14T10:10:52.377Z,6.75
2023-05-14T10:14:01.679Z,5.97
2023-05-14T10:17:07.097Z,6.10
2023-05-14T10:20:16.846Z,7.05
2023-05-14T10:23:19.908Z,6.50
2023-05-14T10:26:24.148Z,7.10
2023-05-14T10:29:34.792Z,5.68
2023-05-14T10:32:37.974Z,7.38
2023-05-14T10:35:57.756Z,5.13
2023-05-14T10:39:05.259Z,5.40
2023-05-14T10:42:09.175Z,6.63
2023-05-14T10:45:13.940Z,6.40
2023-05-14T10:48:17.010Z,7.35
2023-05-14T10:51:23.001Z,6.05
2023-05-14T10:54:28.811Z,6.03
2023-05-14T10:57:33.740Z,7.30
2023-05-14T11:00:36.917Z,5.70
2023-05-14T11:03:42.266Z,6.80
2023-05-14T11:06:48.173Z,5.65
2023-05-14T11:09:52.368Z,7.03
2023-05-14T11:12:55.171Z,6.20
2023-05-14T11:16:02.280Z,6.40
2023-05-14T11:19:12.196Z,5.38
2023-05-14T11:22:16.319Z,5.40
2023-05-14T11:25:19.055Z,4.07
2023-05-14T11:28:22.853Z,4.45
2023-05-14T11:31:26.599Z,3.55
2023-05-14T11:34:29.804Z,5.10
2023-05-14T11:37:33.893Z,4.20
2023-05-14T11:40:36.660Z,4.55
2023-05-14T11:43:39.424Z,5.43
2023-05-14T11:46:42.209Z,3.70
2023-05-14T11:49:45.507Z,4.07
2023-05-14T11:52:50.831Z,3.33
2023-05-14T11:55:54.385Z,9.18
2023-05-14T11:58:58.408Z,5.30
2023-05-14T12:02:01.583Z,4.15
2023-05-14T12:05:07.147Z,3.00
2023-05-14T12:08:24.385Z,3.13
2023-05-14T12:12:17.175Z,5.05
2023-05-14T12:15:21.939Z,4.68
2023-05-14T12:18:26.288Z,3.83
2023-05-14T12:21:31.504Z,3.70
2023-05-14T12:24:35.652Z,4.00
2023-05-14T12:27:38.962Z,5.18
2023-05-14T12:30:41.870Z,3.58
2023-05-14T12:33:44.562Z,4.80
2023-05-14T12:36:47.905Z,3.60
2023-05-14T12:39:52.005Z,3.70
2023-05-14T12:42:56.690Z,4.35
2023-05-14T12:45:59.599Z,3.78
2023-05-14T12:49:02.243Z,4.97
2023-05-14T12:52:22.682Z,3.58
2023-05-14T12:55:29.596Z,3.53
2023-05-14T12:58:32.266Z,3.10
2023-05-14T13:01:35.022Z,3.38
2023-05-14T13:04:38.452Z,3.58
2023-05-14T13:07:41.582Z,4.72
2023-05-14T13:10:45.716Z,3.22
2023-05-14T13:13:48.444Z,3.70
2023-05-14T13:16:51.176Z,3.53
2023-05-14T13:19:53.915Z,3.40
2023-05-14T13:22:56.599Z,2.50
2023-05-14T13:26:00.678Z,2.88
2023-05-14T13:29:03.442Z,2.53
2023-05-14T13:32:06.665Z,3.50
2023-05-14T13:35:10.160Z,3.25
2023-05-14T13:38:12.864Z,3.03
2023-05-14T13:41:16.870Z,2.63
2023-05-14T13:44:19.735Z,4.38
2023-05-14T13:47:22.447Z,3.58
2023-05-14T13:50:25.207Z,2.50
2023-05-14T13:53:28.256Z,3.47
2023-05-14T13:56:32.332Z,2.28
2023-05-14T13:59:35.180Z,2.30
2023-05-14T14:02:37.889Z,2.40
2023-05-14T14:05:40.620Z,3.38
2023-05-14T14:08:43.380Z,1.90
2023-05-14T14:11:47.712Z,2.28
2023-05-14T14:14:50.983Z,2.00
2023-05-14T14:17:53.776Z,3.35
2023-05-14T14:20:56.443Z,3.25
2023-05-14T14:23:59.195Z,4.13
2023-05-14T14:27:03.277Z,2.90
2023-05-14T14:30:08.210Z,2.60
2023-05-14T14:33:11.295Z,3.47
2023-05-14T14:36:14.140Z,2.35
2023-05-14T14:39:16.901Z,1.90
2023-05-14T14:42:21.006Z,2.63
2023-05-14T14:45:24.218Z,2.03
2023-05-14T14:48:28.390Z,2.55
2023-05-14T14:51:31.358Z,2.30
2023-05-14T14:54:34.249Z,2.78
2023-05-14T14:57:39.725Z,2.10
2023-05-14T15:00:42.704Z,2.08
2023-05-14T15:03:45.642Z,2.13
2023-05-14T15:06:48.294Z,2.10
2023-05-14T15:09:50.973Z,2.00
2023-05-14T15:12:55.040Z,2.50
2023-05-14T15:15:57.685Z,2.13
2023-05-14T15:19:00.449Z,2.35
2023-05-14T15:22:03.450Z,2.08
2023-05-14T15:25:06.756Z,1.80
2023-05-14T15:28:10.907Z,2.08
2023-05-14T15:31:13.692Z,1.95
2023-05-14T15:34:16.436Z,1.83
2023-05-14T15:37:19.188Z,2.38
2023-05-14T15:40:22.210Z,1.70
2023-05-14T15:43:26.358Z,2.83
2023-05-14T15:46:29.147Z,3.13
2023-05-14T15:49:31.899Z,4.80
2023-05-14T15:52:35.758Z,1.88
2023-05-14T15:55:38.449Z,2.60
2023-05-14T15:58:42.429Z,2.15
2023-05-14T16:01:45.233Z,1.80
2023-05-14T16:04:49.510Z,1.98
2023-05-14T16:07:52.198Z,2.38
2023-05-14T16:10:54.881Z,2.78
2023-05-14T16:13:59.388Z,2.33
2023-05-14T16:17:02.774Z,2.15
2023-05-14T16:20:06.296Z,2.28
2023-05-14T16:23:08.930Z,1.73
2023-05-14T16:26:11.804Z,2.35
2023-05-14T16:29:15.858Z,2.35
2023-05-14T16:32:18.583Z,3.67
2023-05-14T16:35:21.456Z,2.67
2023-05-14T16:38:24.222Z,2.30
2023-05-14T16:41:26.899Z,2.40
2023-05-14T16:44:30.938Z,2.80
2023-05-14T16:47:33.586Z,2.58
2023-05-14T16:50:36.242Z,2.10
2023-05-14T16:53:38.931Z,2.50
2023-05-14T16:56:41.885Z,2.28
2023-05-14T16:59:46.352Z,2.03
2023-05-14T17:02:50.898Z,2.05
2023-05-14T17:05:53.569Z,2.28
2023-05-14T17:08:56.303Z,3.15
2023-05-14T17:11:59.100Z,2.25
2023-05-14T17:15:05.487Z,2.22
2023-05-14T17:18:08.559Z,2.65
2023-05-14T17:21:11.227Z,2.35
2023-05-14T17:24:13.846Z,2.47
2023-05-14T17:27:16.875Z,4.57
2023-05-14T17:30:21.237Z,2.53
2023-05-14T17:33:23.986Z,2.55
2023-05-14T17:36:28.384Z,3.05
2023-05-14T17:39:31.120Z,2.80
2023-05-14T17:42:33.832Z,3.50
2023-05-14T17:45:50.273Z,1.92
2023-05-14T17:48:58.173Z,2.17
2023-05-14T17:52:00.920Z,1.70
2023-05-14T17:55:03.742Z,2.00
2023-05-14T17:58:06.584Z,2.45
2023-05-14T18:01:10.590Z,2.45
2023-05-14T18:04:13.422Z,3.20
2023-05-14T18:07:16.335Z,1.95
2023-05-14T18:10:19.621Z,2.88
2023-05-14T18:13:22.326Z,2.05
2023-05-14T18:16:26.479Z,1.98
2023-05-14T18:19:29.163Z,3.72
2023-05-14T18:22:32.100Z,2.28
2023-05-14T18:25:35.362Z,2.28
2023-05-14T18:28:38.154Z,3.15
2023-05-14T18:31:42.230Z,4.85
2023-05-14T18:34:44.835Z,2.30
2023-05-14T18:37:47.499Z,1.95
2023-05-14T18:40:50.306Z,3.53
2023-05-14T18:43:52.956Z,1.73
2023-05-14T18:46:57.217Z,1.60
2023-05-14T18:50:01.855Z,1.90
2023-05-14T18:53:04.778Z,2.92
2023-05-14T18:56:07.551Z,2.45
2023-05-14T18:59:10.311Z,2.45
2023-05-14T19:02:14.266Z,3.55
2023-05-14T19:05:17.054Z,2.03
2023-05-14T19:08:19.818Z,2.45
2023-05-14T19:11:22.571Z,2.65
2023-05-14T19:14:25.291Z,1.83
2023-05-14T19:17:32.714Z,2.17
2023-05-14T19:20:35.401Z,2.50
2023-05-14T19:23:38.112Z,3.53
2023-05-14T19:26:40.797Z,2.15
2023-05-14T19:29:43.482Z,2.55
2023-05-14T19:32:48.039Z,2.20
2023-05-14T19:35:51.278Z,2.15
2023-05-14T19:38:53.939Z,2.33
2023-05-14T19:41:56.664Z,2.80
2023-05-14T19:44:59.537Z,2.83
2023-05-14T19:48:03.956Z,3.90
2023-05-14T19:51:06.768Z,2.40
2023-05-14T19:54:09.951Z,2.50
2023-05-14T19:57:12.677Z,2.60
2023-05-14T20:00:15.930Z,2.42
2023-05-14T20:03:20.301Z,3.25
2023-05-14T20:06:23.167Z,2.53
2023-05-14T20:09:26.044Z,2.33
2023-05-14T20:12:28.914Z,3.20
2023-05-14T20:15:32.213Z,2.33
2023-05-14T20:18:36.459Z,2.80
2023-05-14T20:21:39.460Z,2.95
2023-05-14T20:24:42.096Z,3.65
2023-05-14T20:27:45.004Z,2.55
2023-05-14T20:30:47.912Z,2.90
2023-05-14T20:33:51.928Z,2.75
2023-05-14T20:36:54.828Z,3.28
2023-05-14T20:39:57.586Z,2.47
2023-05-14T20:43:00.254Z,2.50
2023-05-14T20:46:03.053Z,4.00
2023-05-14T20:49:07.152Z,3.00
2023-05-14T20:52:09.814Z,2.67
2023-05-14T20:55:13.241Z,4.13
2023-05-14T20:58:15.873Z,3.13
2023-05-14T21:01:18.606Z,3.20
2023-05-14T21:04:22.898Z,2.92
2023-05-14T21:07:27.060Z,3.13
2023-05-14T21:10:30.268Z,3.13
2023-05-14T21:13:32.987Z,3.03
2023-05-14T21:16:36.195Z,3.78
2023-05-14T21:19:40.563Z,3.15
2023-05-14T21:22:43.251Z,2.92
2023-05-14T21:25:45.926Z,3.00
2023-05-14T21:28:48.619Z,2.58
2023-05-14T21:31:51.320Z,2.88
2023-05-14T21:34:56.091Z,3.42
2023-05-14T21:37:58.836Z,4.25
2023-05-14T21:41:01.731Z,3.03
2023-05-14T21:44:04.395Z,3.38
2023-05-14T21:47:07.696Z,4.03
2023-05-14T21:50:13.153Z,3.78
2023-05-14T21:53:15.996Z,3.03
2023-05-14T21:56:19.384Z,3.90
2023-05-14T21:59:22.583Z,4.00
2023-05-14T22:02:25.489Z,2.88
2023-05-14T22:05:30.328Z,3.20
2023-05-14T22:08:33.058Z,3.88
2023-05-14T22:11:35.794Z,3.75
2023-05-14T22:14:38.479Z,4.00
2023-05-14T22:17:41.871Z,3.08
2023-05-14T22:20:46.068Z,3.22
2023-05-14T22:23:50.448Z,4.45
2023-05-14T22:26:53.094Z,4.88
2023-05-14T22:29:55.921Z,3.90
2023-05-14T22:32:58.621Z,2.22
2023-05-14T22:36:02.751Z,3.08
2023-05-14T22:39:05.779Z,3.08
2023-05-14T22:42:08.838Z,5.10
2023-05-14T22:45:11.760Z,4.47
2023-05-14T22:48:14.468Z,3.13
2023-05-14T22:51:18.575Z,3.45
2023-05-14T22:54:21.472Z,5.90
2023-05-14T22:57:24.139Z,4.80
2023-05-14T23:00:27.285Z,2.83
2023-05-14T23:03:30.234Z,2.80
2023-05-14T23:06:34.458Z,3.33
2023-05-14T23:09:37.097Z,3.72
2023-05-14T23:12:39.788Z,5.22
2023-05-14T23:15:42.485Z,3.15
2023-05-14T23:18:45.509Z,4.97
2023-05-14T23:21:49.604Z,3.08
2023-05-14T23:24:52.230Z,4.40
2023-05-14T23:27:54.946Z,3.40
2023-05-14T23:30:57.602Z,3.15
2023-05-14T23:34:00.268Z,3.33
2023-05-14T23:37:04.310Z,2.90
2023-05-14T23:40:08.859Z,3.00
2023-05-14T23:43:11.459Z,2.80
2023-05-14T23:46:14.099Z,3.55
2023-05-14T23:49:16.791Z,3.38
2023-05-14T23:52:20.822Z,3.08
2023-05-14T23:55:23.784Z,3.95
2023-05-14T23:58:26.867Z,3.72
